Ste-Agnès-de-Dundee Airport

CDD3 · Quebec, 加拿大

使用的METAR站距离机场22 NM。
罗盘
风向 的 风向 090° Ste-Agnès-de-Dundee Airport 7/25
风: 5 kt, 2 beaufort

4 kt

3 kt
改变
0 ft 2.000 4.000 6.000 8.000 10.000
Cloud Cloud
FEW 9.500
METAR KMSS 241653Z AUTO 09005KT 10SM FEW095 26/21 A3002 RMK AO2 RAE10 SLP164 P0000 T02610206

METAR Ste-Agnès-de-Dundee Airport - CDD3

Ste-Agnès-de-Dundee Airport是,加拿大中的小机场。 该机场位于纬度45,04777和经度-74,34000。 该机场有一条跑道: 7/25. 该机场的伪ICAO代码为CDD3。 机场在Boston FIR中。

该航空气象观测是针对Massena International-Richards Field在2024年7月24日 12:53, 当地时间进行的。

机场观察

风向为090°,速度为5 kt。

可见度为10 mi。

有几云在9.500 ft的高度。 没有观察到天花板。

温度和风寒是26 °C。 露点为21 °C,相对湿度为74%。 海平面上的气压为30,02 inHg (QNH)。

白天

今天,太阳从05:34升起,在20:33降落。 这适用于Ste-Agnès-de-Dundee Airport,世界夏令时可能有所不同。 当地时间与世界标准时间之间的时差为-4 小时。 夏令时目前正在进行中。

公司介绍

我们没有关于这个机场的公司信息。

体会

到Vliegles.nl去找飞行课程,跳伞和其他飞行体验。 浏览页面,了解Ste-Agnès-de-Dundee Airport附近所有可用的活动。 你也可以使用搜索功能来寻找你所在地附近的特定飞行课程、跳伞或其他飞行体验。

跑道

Id 标题 侧风 逆风 侧风 %
7/25 056°-236° 3 kt 4 kt 56 %

逆风成分最大的方向会被突出显示,并用于横风计算。 这并不一定意味着这个方向在使用。

乌云

9.500 ft FEW 几云

温度 & 天气

温度 26,1 °C
露点 20,6 °C
相对湿度 74%
Kp-index 1 (0-9)

评论

AO2自动气象站,可确定降水类型
RAE10雨 结束于 10, 结束于
SLP164海平面压力为30,01 inHg (30,01 inHg)
P0000自从上次观察以来没有降雨
T02610206温度为26,1 °C (79,0 °F),露点为20,6 °C (69,1 °F)

白天

日出
05:37
中午
13:05
日落
20:34 (6:45)

小工具

你想在你的网站上有一个关于Ste-Agnès-de-Dundee Airport的当前航空天气(METAR)的小部件吗?

显示HTML代码
报告变更